Airfield :
LOGIN :

Register | Disclaimer

   EN    FR    IT 

 










Legend :    VFR   Marginal VFR   IFR   Intensive IFR   Very Intensive IFR
Visi :
Ceiling :
>= 8 km
>= 3000ft
5 to 8 km
1000 to 3000 ft
1500m to 5 km
500 to 1000 ft
800 to 1500m
200 to 500 ft
< 800m
< 200 ft
Symbols :   Thunderstorms  Fog  Heavy snow  Heavy precipitations  Wind > 20 kt
SIGMETs :     Misc.  Thunderstorms  Icing  Turbulence  Mountain Waves  Volcanic Ashes






- Airport Elevation : 26 ft


ETNT - Wittmundhaven AB

CURRENT METAR :
  • 291120Z 18009KT 9999 FEW005 BKN009 14/10 Q1014 GRN GRN TEMPO YLO

EXPIRED METARs :
  • 291105Z 18009KT 9999 FEW005 BKN014 14/10 Q1014 GRN GRN TEMPO YLO
  • 291020Z 17008KT 9999 FEW005 BKN018 14/10 Q1014 WHT WHT BECMG GRN
  • 290939Z 17008KT 9999 FEW005 BKN018 BKN050 13/09 Q1014 WHT WHT BECMG GRN

TAF TAF ETNT
Valid from the 29 at 11:00 until the 29 at 20:00 UTC


291025Z 2911/2920 18007KT 9999 NSW FEW005 SCT020 BKN030
BECMG 2911/2913 18007KT 4000 -RA SCT005 BKN010
TEMPO 2913/2920 16007KT 2000 RADZ BKN003 OVC005 BY ETGL



MET'MAP, your aeronautical weather chart ! - Copyright ORBIFLY December 2007 - Disclaimer

ORBIFLY MET'MAP TEAM :

Programming & Development : Alexandra Zaïnal
Concept & original design : Baudouin d'Aumeries
Assistance for programming : Marc-Olivier Méhu
Technical & hardware support : Manuel Goepfert

Contact : metmap@orbifly.com




SOURCES & CREDITS :

   NOAA